createdAt,value
2022-07-29T00:01:56.454Z,97.23
2022-07-29T00:04:29.382Z,97.16
2022-07-29T00:06:59.969Z,98.08
2022-07-29T00:09:29.946Z,97.66
2022-07-29T00:12:03.222Z,97.88
2022-07-29T00:14:33.672Z,98.01
2022-07-29T00:17:04.000Z,98.75
2022-07-29T00:19:36.884Z,98.82
2022-07-29T00:22:08.422Z,98.68
2022-07-29T00:24:38.644Z,98.48
2022-07-29T00:27:08.414Z,98.94
2022-07-29T00:29:38.618Z,99.18
2022-07-29T00:32:10.756Z,98.94
2022-07-29T00:34:55.663Z,99.78
2022-07-29T00:37:25.956Z,100.00
2022-07-29T00:39:56.220Z,100.00
2022-07-29T00:42:26.484Z,99.90
2022-07-29T00:44:56.705Z,100.00
2022-07-29T00:47:26.682Z,100.00
2022-07-29T00:49:59.527Z,100.00
2022-07-29T00:52:30.415Z,100.00
2022-07-29T00:55:04.957Z,100.00
2022-07-29T00:57:39.133Z,100.00
2022-07-29T01:00:12.634Z,100.00
2022-07-29T01:02:42.596Z,100.00
2022-07-29T01:05:19.140Z,100.00
2022-07-29T01:07:52.021Z,100.00
2022-07-29T01:10:24.754Z,100.00
2022-07-29T01:12:56.848Z,100.00
2022-07-29T01:15:29.708Z,100.00
2022-07-29T01:18:08.063Z,100.00
2022-07-29T01:21:09.461Z,100.00
2022-07-29T01:24:03.618Z,100.00
2022-07-29T01:26:38.857Z,100.00
2022-07-29T01:29:23.941Z,100.00
2022-07-29T01:32:01.581Z,100.00
2022-07-29T01:34:44.351Z,100.00
2022-07-29T01:37:22.496Z,100.00
2022-07-29T01:39:56.757Z,100.00
2022-07-29T01:42:33.649Z,100.00
2022-07-29T01:45:14.418Z,100.00
2022-07-29T01:47:50.989Z,100.00
2022-07-29T01:50:27.710Z,100.00
2022-07-29T01:53:02.580Z,100.00
2022-07-29T01:55:40.508Z,100.00
2022-07-29T01:58:13.424Z,100.00
2022-07-29T02:00:49.741Z,100.00
2022-07-29T02:03:21.842Z,100.00
2022-07-29T02:05:54.631Z,100.00
2022-07-29T02:08:30.007Z,100.00
2022-07-29T02:11:00.979Z,100.00
2022-07-29T02:13:35.658Z,100.00
2022-07-29T02:16:11.018Z,100.00
2022-07-29T02:18:45.031Z,100.00
2022-07-29T02:21:24.039Z,100.00
2022-07-29T02:23:55.376Z,100.00
2022-07-29T02:26:28.252Z,100.00
2022-07-29T02:29:00.556Z,100.00
2022-07-29T02:31:38.779Z,100.00
2022-07-29T02:34:12.620Z,100.00
2022-07-29T02:36:44.484Z,100.00
2022-07-29T02:39:22.521Z,100.00
2022-07-29T02:41:56.915Z,100.00
2022-07-29T02:44:34.425Z,100.00
2022-07-29T02:47:15.174Z,100.00
2022-07-29T02:49:52.554Z,100.00
2022-07-29T02:52:29.882Z,100.00
2022-07-29T02:55:04.196Z,100.00
2022-07-29T02:57:54.311Z,100.00
2022-07-29T03:00:30.718Z,100.00
2022-07-29T03:03:07.698Z,100.00
2022-07-29T03:05:39.015Z,100.00
2022-07-29T03:08:13.160Z,100.00
2022-07-29T03:10:47.832Z,100.00
2022-07-29T03:13:19.995Z,100.00
2022-07-29T03:15:52.211Z,100.00
2022-07-29T03:18:26.109Z,100.00
2022-07-29T03:20:56.382Z,100.00
2022-07-29T03:23:35.173Z,100.00
2022-07-29T03:26:07.055Z,100.00
2022-07-29T03:28:37.117Z,100.00
2022-07-29T03:31:09.724Z,100.00
2022-07-29T03:33:42.229Z,100.00
2022-07-29T03:36:13.744Z,100.00
2022-07-29T03:38:46.604Z,100.00
2022-07-29T03:41:18.578Z,100.00
2022-07-29T03:43:55.924Z,100.00
2022-07-29T03:46:30.539Z,100.00
2022-07-29T03:49:09.474Z,100.00
2022-07-29T03:51:39.866Z,100.00
2022-07-29T03:54:12.570Z,100.00
2022-07-29T03:56:47.887Z,100.00
2022-07-29T03:59:24.329Z,100.00
2022-07-29T04:01:54.835Z,100.00
2022-07-29T04:04:27.634Z,100.00
2022-07-29T04:06:58.923Z,100.00
2022-07-29T04:09:29.282Z,100.00
2022-07-29T04:12:03.386Z,100.00
2022-07-29T04:14:35.924Z,100.00
2022-07-29T04:17:07.519Z,100.00
2022-07-29T04:19:39.952Z,100.00
2022-07-29T04:22:09.869Z,100.00
2022-07-29T04:24:43.986Z,100.00
2022-07-29T04:27:16.234Z,100.00
2022-07-29T04:29:56.916Z,100.00
2022-07-29T04:32:27.699Z,100.00
2022-07-29T04:35:03.567Z,100.00
2022-07-29T04:37:33.933Z,100.00
2022-07-29T04:40:07.187Z,100.00
2022-07-29T04:42:46.211Z,100.00
2022-07-29T04:45:16.894Z,100.00
2022-07-29T04:47:52.935Z,100.00
2022-07-29T04:50:26.300Z,100.00
2022-07-29T04:52:57.537Z,100.00
2022-07-29T04:55:28.024Z,100.00
2022-07-29T04:58:00.590Z,100.00
2022-07-29T05:00:34.792Z,100.00
2022-07-29T05:03:04.572Z,100.00
2022-07-29T05:05:37.327Z,100.00
2022-07-29T05:08:07.955Z,100.00
2022-07-29T05:10:39.208Z,100.00
2022-07-29T05:13:12.892Z,100.00
2022-07-29T05:15:42.517Z,100.00
2022-07-29T05:18:12.618Z,100.00
2022-07-29T05:20:45.232Z,100.00
2022-07-29T05:23:16.989Z,100.00
2022-07-29T05:25:47.538Z,100.00
2022-07-29T05:28:18.212Z,100.00
2022-07-29T05:30:48.600Z,100.00
2022-07-29T05:33:35.124Z,100.00
2022-07-29T05:36:10.005Z,100.00
2022-07-29T05:38:40.471Z,99.17
2022-07-29T05:41:10.685Z,98.11
2022-07-29T05:43:40.546Z,95.26
2022-07-29T05:46:10.667Z,94.23
2022-07-29T05:48:41.082Z,92.43
2022-07-29T05:51:17.609Z,92.41
2022-07-29T05:53:47.567Z,91.52
2022-07-29T05:56:17.499Z,91.39
2022-07-29T05:58:48.013Z,91.10
2022-07-29T06:01:18.808Z,89.64
2022-07-29T06:03:50.615Z,87.76
2022-07-29T06:06:23.662Z,85.04
2022-07-29T06:08:54.153Z,85.92
2022-07-29T06:11:24.635Z,86.89
2022-07-29T06:13:55.276Z,86.07
2022-07-29T06:16:29.788Z,84.82
2022-07-29T06:19:01.687Z,83.86
2022-07-29T06:21:34.784Z,83.62
2022-07-29T06:24:09.896Z,83.17
2022-07-29T06:26:40.099Z,84.84
2022-07-29T06:29:11.816Z,85.47
2022-07-29T06:31:42.376Z,85.73
2022-07-29T06:34:12.450Z,85.66
2022-07-29T06:36:48.520Z,87.80
2022-07-29T06:39:19.565Z,87.82
2022-07-29T06:41:54.265Z,88.49
2022-07-29T06:44:25.140Z,87.09
2022-07-29T06:46:58.349Z,84.65
2022-07-29T06:49:31.888Z,81.83
2022-07-29T06:52:04.987Z,78.25
2022-07-29T06:54:35.248Z,76.08
2022-07-29T06:57:05.522Z,73.85
2022-07-29T06:59:36.169Z,73.48
2022-07-29T07:02:06.471Z,74.49
2022-07-29T07:04:37.020Z,73.76
2022-07-29T07:07:12.001Z,74.24
2022-07-29T07:09:42.392Z,74.63
2022-07-29T07:12:16.336Z,75.61
2022-07-29T07:14:46.629Z,75.67
2022-07-29T07:17:16.784Z,76.17
2022-07-29T07:19:47.946Z,75.98
2022-07-29T07:22:21.301Z,76.53
2022-07-29T07:24:51.759Z,76.06
2022-07-29T07:27:23.906Z,76.92
2022-07-29T07:29:56.993Z,77.18
2022-07-29T07:32:27.071Z,77.52
2022-07-29T07:34:57.433Z,77.65
2022-07-29T07:37:35.826Z,76.47
2022-07-29T07:40:06.910Z,75.88
2022-07-29T07:42:37.129Z,76.39
2022-07-29T07:45:13.815Z,75.61
2022-07-29T07:47:45.737Z,74.37
2022-07-29T07:50:19.280Z,72.56
2022-07-29T07:53:00.136Z,70.60
2022-07-29T07:55:47.472Z,69.88
2022-07-29T07:58:25.122Z,69.00
2022-07-29T08:00:55.314Z,68.08
2022-07-29T08:03:25.689Z,69.56
2022-07-29T08:06:01.013Z,70.02
2022-07-29T08:08:34.834Z,68.66
2022-07-29T08:11:09.395Z,67.17
2022-07-29T08:13:40.937Z,64.96
2022-07-29T08:16:17.986Z,63.12
2022-07-29T08:18:50.324Z,60.99
2022-07-29T08:21:21.824Z,58.37
2022-07-29T08:24:16.577Z,60.90
2022-07-29T08:26:48.919Z,58.58
2022-07-29T08:29:20.181Z,60.25
2022-07-29T08:31:50.984Z,58.42
2022-07-29T08:34:27.748Z,58.14
2022-07-29T08:37:01.050Z,57.04
2022-07-29T08:39:34.914Z,56.30
2022-07-29T08:42:05.382Z,56.01
2022-07-29T08:44:36.875Z,55.52
2022-07-29T08:47:07.360Z,57.74
2022-07-29T08:49:39.661Z,55.60
2022-07-29T08:52:12.766Z,55.24
2022-07-29T08:54:47.872Z,53.96
2022-07-29T08:57:18.454Z,54.93
2022-07-29T08:59:54.855Z,56.82
2022-07-29T09:02:26.504Z,56.79
2022-07-29T09:04:56.699Z,58.69
2022-07-29T09:07:26.879Z,56.94
2022-07-29T09:10:08.956Z,55.61
2022-07-29T09:12:39.105Z,54.89
2022-07-29T09:15:12.934Z,55.10
2022-07-29T09:17:48.167Z,57.79
2022-07-29T09:20:22.196Z,56.17
2022-07-29T09:22:54.447Z,54.39
2022-07-29T09:25:41.243Z,55.30
2022-07-29T09:28:11.987Z,54.77
2022-07-29T09:30:54.677Z,53.77
2022-07-29T09:33:26.640Z,53.47
2022-07-29T09:36:06.711Z,53.35
2022-07-29T09:38:37.761Z,53.12
2022-07-29T09:41:11.775Z,52.56
2022-07-29T09:43:43.524Z,52.88
2022-07-29T09:46:17.965Z,52.47
2022-07-29T09:48:48.216Z,49.83
2022-07-29T09:51:28.316Z,53.04
2022-07-29T09:54:26.996Z,51.72
2022-07-29T09:57:00.207Z,51.58
2022-07-29T09:59:31.105Z,50.64
2022-07-29T10:02:01.540Z,52.46
2022-07-29T10:04:46.623Z,54.06
2022-07-29T10:07:16.707Z,52.94
2022-07-29T10:09:56.396Z,53.30
2022-07-29T10:12:29.741Z,52.92
2022-07-29T10:15:01.065Z,51.75
2022-07-29T10:17:31.186Z,52.92
2022-07-29T10:20:01.657Z,51.69
2022-07-29T10:22:52.336Z,54.33
2022-07-29T10:25:24.263Z,56.40
2022-07-29T10:27:58.769Z,50.45
2022-07-29T10:30:30.360Z,51.73
2022-07-29T10:33:26.503Z,50.92
2022-07-29T10:36:06.614Z,51.73
2022-07-29T10:38:56.517Z,51.17
2022-07-29T10:41:51.418Z,53.71
2022-07-29T10:44:26.776Z,50.05
2022-07-29T10:46:57.450Z,48.85
2022-07-29T10:49:31.439Z,50.59
2022-07-29T10:52:06.019Z,48.32
2022-07-29T10:54:48.733Z,47.52
2022-07-29T10:57:57.728Z,48.89
2022-07-29T11:00:36.424Z,49.96
2022-07-29T11:03:10.618Z,50.46
2022-07-29T11:05:59.901Z,47.42
2022-07-29T11:08:32.826Z,48.46
2022-07-29T11:11:38.267Z,48.35
2022-07-29T11:14:10.399Z,46.37
2022-07-29T11:17:09.089Z,48.12
2022-07-29T11:19:45.720Z,47.04
2022-07-29T11:22:45.822Z,45.69
2022-07-29T11:25:18.343Z,45.54
2022-07-29T11:27:49.014Z,45.29
2022-07-29T11:30:21.835Z,44.39
2022-07-29T11:32:58.126Z,43.58
2022-07-29T11:35:38.336Z,44.05
2022-07-29T11:38:33.106Z,42.27
2022-07-29T11:41:28.265Z,44.34
2022-07-29T11:44:01.563Z,44.82
2022-07-29T11:46:54.546Z,42.35
2022-07-29T11:49:31.933Z,40.27
2022-07-29T11:52:11.002Z,41.91
2022-07-29T11:54:58.012Z,40.28
2022-07-29T11:57:37.149Z,41.61
2022-07-29T12:00:12.437Z,44.79
2022-07-29T12:02:48.046Z,42.36
2022-07-29T12:05:36.559Z,39.34
2022-07-29T12:08:15.997Z,40.21
2022-07-29T12:10:47.472Z,41.23
2022-07-29T12:13:19.465Z,41.64
2022-07-29T12:16:00.152Z,42.50
2022-07-29T12:18:31.233Z,41.08
2022-07-29T12:21:06.475Z,40.50
2022-07-29T12:23:37.141Z,42.08
2022-07-29T12:26:10.616Z,40.39
2022-07-29T12:28:41.984Z,40.49
2022-07-29T12:31:42.817Z,40.23
2022-07-29T12:34:08.391Z,39.45
2022-07-29T12:36:42.548Z,40.30
2022-07-29T12:39:13.527Z,40.54
2022-07-29T12:41:43.676Z,40.84
2022-07-29T12:44:13.916Z,38.98
2022-07-29T12:46:43.982Z,40.50
2022-07-29T12:49:14.279Z,41.01
2022-07-29T12:51:46.652Z,41.39
2022-07-29T12:54:18.259Z,41.90
2022-07-29T12:56:49.199Z,40.23
2022-07-29T12:59:22.945Z,40.54
2022-07-29T13:01:55.121Z,41.82
2022-07-29T13:04:31.592Z,42.24
2022-07-29T13:07:10.601Z,42.10
2022-07-29T13:09:42.930Z,41.83
2022-07-29T13:12:14.683Z,40.87
2022-07-29T13:14:46.564Z,41.90
2022-07-29T13:17:18.380Z,41.02
2022-07-29T13:19:50.841Z,39.73
2022-07-29T13:22:25.191Z,39.99
2022-07-29T13:24:57.900Z,40.19
2022-07-29T13:27:33.371Z,40.51
2022-07-29T13:30:05.701Z,40.34
2022-07-29T13:32:37.443Z,39.95
2022-07-29T13:35:10.712Z,39.96
2022-07-29T13:37:43.779Z,41.09
2022-07-29T13:40:15.085Z,40.43
2022-07-29T13:42:45.483Z,41.76
2022-07-29T13:45:17.333Z,41.66
2022-07-29T13:47:47.927Z,43.29
2022-07-29T13:50:19.933Z,42.91
2022-07-29T13:52:52.656Z,43.47
2022-07-29T13:55:23.184Z,42.56
2022-07-29T13:57:53.512Z,40.71
2022-07-29T14:00:24.808Z,41.32
2022-07-29T14:02:54.942Z,40.39
2022-07-29T14:05:25.664Z,41.94
2022-07-29T14:08:01.391Z,41.71
2022-07-29T14:10:31.753Z,41.01
2022-07-29T14:13:01.679Z,40.84
2022-07-29T14:15:32.168Z,41.75
2022-07-29T14:18:02.842Z,41.91
2022-07-29T14:20:34.950Z,43.79
2022-07-29T14:23:07.373Z,43.07
2022-07-29T14:25:37.506Z,42.72
2022-07-29T14:28:11.986Z,43.94
2022-07-29T14:30:44.857Z,44.18
2022-07-29T14:33:17.882Z,43.54
2022-07-29T14:35:49.613Z,44.15
2022-07-29T14:38:22.234Z,44.35
2022-07-29T14:40:57.018Z,42.80
2022-07-29T14:43:27.463Z,43.99
2022-07-29T14:46:02.918Z,42.62
2022-07-29T14:48:35.406Z,43.01
2022-07-29T14:51:05.544Z,43.44
2022-07-29T14:53:39.048Z,43.60
2022-07-29T14:56:34.314Z,44.11
2022-07-29T14:58:59.092Z,43.66
2022-07-29T15:01:33.159Z,43.29
2022-07-29T15:04:04.293Z,44.10
2022-07-29T15:06:35.129Z,44.03
2022-07-29T15:09:07.870Z,45.42
2022-07-29T15:11:38.587Z,45.07
2022-07-29T15:14:08.897Z,45.81
2022-07-29T15:16:41.902Z,45.62
2022-07-29T15:19:17.090Z,45.19
2022-07-29T15:21:59.538Z,45.16
2022-07-29T15:24:34.390Z,45.61
2022-07-29T15:27:04.566Z,46.63
2022-07-29T15:29:35.861Z,46.61
2022-07-29T15:32:06.197Z,47.46
2022-07-29T15:34:36.487Z,48.58
2022-07-29T15:37:07.134Z,47.72
2022-07-29T15:39:39.518Z,47.94
2022-07-29T15:42:09.960Z,47.25
2022-07-29T15:44:39.953Z,47.73
2022-07-29T15:47:10.605Z,47.78
2022-07-29T15:49:47.214Z,46.50
2022-07-29T15:52:25.959Z,45.81
2022-07-29T15:55:00.985Z,46.17
2022-07-29T15:57:31.059Z,48.35
2022-07-29T16:00:04.360Z,49.04
2022-07-29T16:02:34.656Z,48.44
2022-07-29T16:05:04.599Z,48.36
2022-07-29T16:07:39.713Z,48.26
2022-07-29T16:10:12.362Z,47.45
2022-07-29T16:12:42.210Z,48.63
2022-07-29T16:15:13.043Z,48.55
2022-07-29T16:17:42.967Z,51.16
2022-07-29T16:20:14.084Z,51.05
2022-07-29T16:22:43.990Z,50.38
2022-07-29T16:25:19.813Z,50.26
2022-07-29T16:27:49.933Z,50.44
2022-07-29T16:30:20.856Z,49.71
2022-07-29T16:32:50.947Z,48.91
2022-07-29T16:35:20.853Z,50.10
2022-07-29T16:37:50.821Z,49.90
2022-07-29T16:40:23.978Z,52.41
2022-07-29T16:42:53.814Z,55.50
2022-07-29T16:45:24.142Z,55.00
2022-07-29T16:48:01.334Z,57.23
2022-07-29T16:50:34.002Z,59.91
2022-07-29T16:53:12.182Z,58.91
2022-07-29T16:55:49.141Z,60.48
2022-07-29T16:58:19.383Z,60.88
2022-07-29T17:00:52.608Z,61.53
2022-07-29T17:03:22.789Z,64.50
2022-07-29T17:05:56.345Z,63.85
2022-07-29T17:08:26.625Z,64.34
2022-07-29T17:10:59.798Z,68.93
2022-07-29T17:13:29.821Z,68.54
2022-07-29T17:16:00.761Z,69.85
2022-07-29T17:18:31.181Z,71.85
2022-07-29T17:21:01.120Z,76.34
2022-07-29T17:23:31.567Z,77.11
2022-07-29T17:26:04.914Z,76.95
2022-07-29T17:28:34.649Z,74.36
2022-07-29T17:31:07.640Z,74.67
2022-07-29T17:33:37.998Z,76.96
2022-07-29T17:36:21.084Z,75.22
2022-07-29T17:38:51.424Z,76.11
2022-07-29T17:41:26.791Z,78.07
2022-07-29T17:43:57.938Z,82.40
2022-07-29T17:46:30.121Z,81.48
2022-07-29T17:49:01.831Z,80.10
2022-07-29T17:51:32.478Z,82.17
2022-07-29T17:54:02.681Z,82.57
2022-07-29T17:56:35.391Z,82.74
2022-07-29T17:59:17.985Z,83.02
2022-07-29T18:01:48.314Z,88.09
2022-07-29T18:04:23.656Z,91.31
2022-07-29T18:06:54.555Z,91.05
2022-07-29T18:09:25.291Z,86.73
2022-07-29T18:11:58.535Z,89.21
2022-07-29T18:14:29.416Z,90.85
2022-07-29T18:17:00.367Z,93.63
2022-07-29T18:19:31.582Z,95.88
2022-07-29T18:22:05.298Z,99.09
2022-07-29T18:24:36.237Z,100.00
2022-07-29T18:27:09.059Z,99.57
2022-07-29T18:29:39.709Z,100.00
2022-07-29T18:32:10.783Z,100.00
2022-07-29T18:34:41.192Z,100.00
2022-07-29T18:37:13.577Z,100.00
2022-07-29T18:39:44.066Z,100.00
2022-07-29T18:42:18.232Z,100.00
2022-07-29T18:44:49.112Z,100.00
2022-07-29T18:47:22.533Z,100.00
2022-07-29T18:50:03.364Z,100.00
2022-07-29T18:52:34.359Z,100.00
2022-07-29T18:55:05.712Z,100.00
2022-07-29T18:57:53.746Z,100.00
2022-07-29T19:00:25.742Z,100.00
2022-07-29T19:02:57.269Z,100.00
2022-07-29T19:05:27.544Z,100.00
2022-07-29T19:07:58.220Z,100.00
2022-07-29T19:10:28.332Z,100.00
2022-07-29T19:13:06.362Z,100.00
2022-07-29T19:15:38.321Z,100.00
2022-07-29T19:18:13.639Z,100.00
2022-07-29T19:20:44.091Z,100.00
2022-07-29T19:23:15.020Z,100.00
2022-07-29T19:25:53.737Z,100.00
2022-07-29T19:28:27.383Z,100.00
2022-07-29T19:30:58.664Z,100.00
2022-07-29T19:33:29.330Z,100.00
2022-07-29T19:35:59.462Z,100.00
2022-07-29T19:38:32.374Z,100.00
2022-07-29T19:41:02.900Z,100.00
2022-07-29T19:43:50.721Z,100.00
2022-07-29T19:46:23.068Z,100.00
2022-07-29T19:48:54.042Z,100.00
2022-07-29T19:51:24.122Z,100.00
2022-07-29T19:53:55.197Z,100.00
2022-07-29T19:56:30.228Z,100.00
2022-07-29T19:59:03.801Z,100.00
2022-07-29T20:01:38.213Z,100.00
2022-07-29T20:04:08.448Z,100.00
2022-07-29T20:06:38.530Z,100.00
2022-07-29T20:09:08.602Z,100.00
2022-07-29T20:11:47.106Z,100.00
2022-07-29T20:14:20.606Z,100.00
2022-07-29T20:16:50.842Z,100.00
2022-07-29T20:19:21.257Z,100.00
2022-07-29T20:21:51.756Z,100.00
2022-07-29T20:24:22.721Z,100.00
2022-07-29T20:26:52.539Z,100.00
2022-07-29T20:29:26.720Z,100.00
2022-07-29T20:31:56.979Z,100.00
2022-07-29T20:34:28.734Z,100.00
2022-07-29T20:37:00.421Z,100.00
2022-07-29T20:39:33.523Z,100.00
2022-07-29T20:42:04.029Z,100.00
2022-07-29T20:44:38.567Z,100.00
2022-07-29T20:47:08.969Z,100.00
2022-07-29T20:49:39.125Z,100.00
2022-07-29T20:52:11.107Z,100.00
2022-07-29T20:54:41.171Z,100.00
2022-07-29T20:57:11.639Z,100.00
2022-07-29T20:59:45.909Z,100.00
2022-07-29T21:02:16.209Z,100.00
2022-07-29T21:04:46.964Z,100.00
2022-07-29T21:07:17.508Z,100.00
2022-07-29T21:09:47.995Z,100.00
2022-07-29T21:12:17.782Z,100.00
2022-07-29T21:14:52.073Z,100.00
2022-07-29T21:17:25.090Z,100.00
2022-07-29T21:19:58.279Z,100.00
2022-07-29T21:22:31.268Z,100.00
2022-07-29T21:25:02.080Z,100.00
2022-07-29T21:27:46.726Z,100.00
2022-07-29T21:30:21.793Z,100.00
2022-07-29T21:32:52.137Z,100.00
2022-07-29T21:35:35.783Z,100.00
2022-07-29T21:38:12.214Z,100.00
2022-07-29T21:40:42.370Z,100.00
2022-07-29T21:43:12.474Z,100.00
2022-07-29T21:45:47.815Z,100.00
2022-07-29T21:48:18.598Z,100.00
2022-07-29T21:50:49.928Z,100.00
2022-07-29T21:53:22.138Z,100.00
2022-07-29T21:55:55.320Z,100.00
2022-07-29T21:58:25.790Z,100.00
2022-07-29T22:00:58.823Z,100.00
2022-07-29T22:03:31.301Z,100.00
2022-07-29T22:06:01.179Z,100.00
2022-07-29T22:08:31.016Z,100.00
2022-07-29T22:11:01.120Z,100.00
2022-07-29T22:13:31.609Z,100.00
2022-07-29T22:16:04.208Z,100.00
2022-07-29T22:18:34.117Z,100.00
2022-07-29T22:21:03.977Z,100.00
2022-07-29T22:23:34.587Z,100.00
2022-07-29T22:26:05.024Z,100.00
2022-07-29T22:28:35.113Z,100.00
2022-07-29T22:31:07.768Z,100.00
2022-07-29T22:33:38.024Z,100.00
2022-07-29T22:36:08.937Z,100.00
2022-07-29T22:38:38.897Z,100.00
2022-07-29T22:41:08.871Z,100.00
2022-07-29T22:43:41.379Z,100.00
2022-07-29T22:46:17.715Z,100.00
2022-07-29T22:48:48.110Z,100.00
2022-07-29T22:51:18.364Z,100.00
2022-07-29T22:53:48.025Z,100.00
2022-07-29T22:56:18.594Z,100.00
2022-07-29T22:58:49.503Z,100.00
2022-07-29T23:01:37.778Z,100.00
2022-07-29T23:04:08.567Z,100.00
2022-07-29T23:06:39.068Z,100.00
2022-07-29T23:09:09.207Z,100.00
2022-07-29T23:11:39.313Z,100.00
2022-07-29T23:14:09.540Z,100.00
2022-07-29T23:16:42.446Z,100.00
2022-07-29T23:19:12.394Z,100.00
2022-07-29T23:21:42.156Z,100.00
2022-07-29T23:24:12.316Z,100.00
2022-07-29T23:26:42.390Z,100.00
2022-07-29T23:29:12.783Z,100.00
2022-07-29T23:31:48.240Z,100.00
2022-07-29T23:34:19.475Z,100.00
2022-07-29T23:36:52.080Z,100.00
2022-07-29T23:39:22.551Z,100.00
2022-07-29T23:41:52.437Z,100.00
2022-07-29T23:44:22.906Z,100.00
2022-07-29T23:46:55.961Z,100.00
2022-07-29T23:49:26.207Z,100.00
2022-07-29T23:51:56.403Z,100.00
2022-07-29T23:54:26.326Z,100.00
2022-07-29T23:56:58.338Z,100.00
2022-07-29T23:59:28.777Z,100.00
